sensor_id;sensor_type;location;lat;lon;timestamp;P1;durP1;ratioP1;P2;durP2;ratioP2
73672;SDS011;61972;19.480;-99.240;2023-11-19T00:00:57;4.22;;;1.60;;
73672;SDS011;61972;19.480;-99.240;2023-11-19T00:03:23;3.28;;;1.60;;
73672;SDS011;61972;19.480;-99.240;2023-11-19T00:05:49;3.47;;;1.67;;
73672;SDS011;61972;19.480;-99.240;2023-11-19T00:08:16;4.88;;;1.80;;
73672;SDS011;61972;19.480;-99.240;2023-11-19T00:10:42;3.95;;;1.60;;
73672;SDS011;61972;19.480;-99.240;2023-11-19T00:13:08;4.30;;;1.80;;
73672;SDS011;61972;19.480;-99.240;2023-11-19T00:15:35;4.38;;;1.80;;
73672;SDS011;61972;19.480;-99.240;2023-11-19T00:18:01;4.13;;;1.80;;
73672;SDS011;61972;19.480;-99.240;2023-11-19T00:20:30;3.95;;;1.65;;
73672;SDS011;61972;19.480;-99.240;2023-11-19T00:22:56;4.55;;;1.90;;
73672;SDS011;61972;19.480;-99.240;2023-11-19T00:25:22;3.97;;;1.83;;
73672;SDS011;61972;19.480;-99.240;2023-11-19T00:27:49;4.40;;;1.65;;
73672;SDS011;61972;19.480;-99.240;2023-11-19T00:30:16;2.83;;;1.60;;
73672;SDS011;61972;19.480;-99.240;2023-11-19T00:32:43;3.95;;;1.65;;
73672;SDS011;61972;19.480;-99.240;2023-11-19T00:35:09;3.15;;;1.50;;
73672;SDS011;61972;19.480;-99.240;2023-11-19T00:37:41;3.03;;;1.60;;
73672;SDS011;61972;19.480;-99.240;2023-11-19T00:40:14;4.07;;;1.70;;
73672;SDS011;61972;19.480;-99.240;2023-11-19T00:42:41;3.43;;;1.63;;
73672;SDS011;61972;19.480;-99.240;2023-11-19T00:45:08;3.72;;;1.88;;
73672;SDS011;61972;19.480;-99.240;2023-11-19T00:47:36;3.53;;;1.70;;
73672;SDS011;61972;19.480;-99.240;2023-11-19T00:50:02;3.80;;;1.70;;
73672;SDS011;61972;19.480;-99.240;2023-11-19T00:52:29;3.78;;;1.77;;
73672;SDS011;61972;19.480;-99.240;2023-11-19T00:54:55;5.23;;;1.50;;
73672;SDS011;61972;19.480;-99.240;2023-11-19T00:57:22;5.32;;;1.40;;
73672;SDS011;61972;19.480;-99.240;2023-11-19T00:59:49;6.40;;;1.75;;
73672;SDS011;61972;19.480;-99.240;2023-11-19T01:02:15;7.95;;;1.90;;
73672;SDS011;61972;19.480;-99.240;2023-11-19T01:04:41;4.55;;;1.77;;
73672;SDS011;61972;19.480;-99.240;2023-11-19T01:07:08;5.53;;;1.73;;
73672;SDS011;61972;19.480;-99.240;2023-11-19T01:09:37;3.75;;;1.55;;
73672;SDS011;61972;19.480;-99.240;2023-11-19T01:12:04;4.93;;;1.60;;
73672;SDS011;61972;19.480;-99.240;2023-11-19T01:14:30;6.82;;;1.67;;
73672;SDS011;61972;19.480;-99.240;2023-11-19T01:16:56;6.47;;;1.80;;
73672;SDS011;61972;19.480;-99.240;2023-11-19T01:19:22;6.33;;;2.13;;
73672;SDS011;61972;19.480;-99.240;2023-11-19T01:21:52;6.07;;;1.98;;
73672;SDS011;61972;19.480;-99.240;2023-11-19T01:24:18;4.97;;;1.90;;
73672;SDS011;61972;19.480;-99.240;2023-11-19T01:26:45;4.35;;;1.73;;
73672;SDS011;61972;19.480;-99.240;2023-11-19T01:29:14;5.53;;;1.80;;
73672;SDS011;61972;19.480;-99.240;2023-11-19T01:31:41;5.03;;;1.60;;
73672;SDS011;61972;19.480;-99.240;2023-11-19T01:34:07;6.43;;;1.80;;
73672;SDS011;61972;19.480;-99.240;2023-11-19T01:36:34;5.40;;;2.00;;
73672;SDS011;61972;19.480;-99.240;2023-11-19T01:39:00;6.25;;;2.00;;
73672;SDS011;61972;19.480;-99.240;2023-11-19T01:41:27;4.22;;;1.60;;
73672;SDS011;61972;19.480;-99.240;2023-11-19T01:43:53;4.27;;;1.90;;
73672;SDS011;61972;19.480;-99.240;2023-11-19T01:46:19;5.10;;;2.00;;
73672;SDS011;61972;19.480;-99.240;2023-11-19T01:48:46;4.20;;;2.00;;
73672;SDS011;61972;19.480;-99.240;2023-11-19T01:51:13;4.03;;;1.95;;
73672;SDS011;61972;19.480;-99.240;2023-11-19T01:53:41;4.55;;;1.70;;
73672;SDS011;61972;19.480;-99.240;2023-11-19T01:56:09;3.73;;;2.10;;
73672;SDS011;61972;19.480;-99.240;2023-11-19T01:58:38;4.45;;;1.90;;
73672;SDS011;61972;19.480;-99.240;2023-11-19T02:01:06;4.22;;;1.80;;
73672;SDS011;61972;19.480;-99.240;2023-11-19T02:03:32;5.28;;;1.95;;
73672;SDS011;61972;19.480;-99.240;2023-11-19T02:05:59;4.47;;;2.28;;
73672;SDS011;61972;19.480;-99.240;2023-11-19T02:08:26;4.90;;;2.00;;
73672;SDS011;61972;19.480;-99.240;2023-11-19T02:10:52;5.68;;;1.88;;
73672;SDS011;61972;19.480;-99.240;2023-11-19T02:13:22;4.68;;;2.00;;
73672;SDS011;61972;19.480;-99.240;2023-11-19T02:15:48;3.67;;;1.90;;
73672;SDS011;61972;19.480;-99.240;2023-11-19T02:18:18;4.45;;;1.98;;
73672;SDS011;61972;19.480;-99.240;2023-11-19T02:20:47;4.53;;;2.13;;
73672;SDS011;61972;19.480;-99.240;2023-11-19T02:23:14;5.25;;;1.95;;
73672;SDS011;61972;19.480;-99.240;2023-11-19T02:25:41;5.35;;;2.03;;
73672;SDS011;61972;19.480;-99.240;2023-11-19T02:28:15;3.50;;;1.90;;
73672;SDS011;61972;19.480;-99.240;2023-11-19T02:30:41;4.22;;;1.98;;
73672;SDS011;61972;19.480;-99.240;2023-11-19T02:33:07;3.33;;;2.00;;
73672;SDS011;61972;19.480;-99.240;2023-11-19T02:35:34;5.60;;;1.63;;
73672;SDS011;61972;19.480;-99.240;2023-11-19T02:38:00;3.80;;;1.80;;
73672;SDS011;61972;19.480;-99.240;2023-11-19T02:40:26;3.85;;;1.92;;
73672;SDS011;61972;19.480;-99.240;2023-11-19T02:42:52;4.82;;;2.10;;
73672;SDS011;61972;19.480;-99.240;2023-11-19T02:45:24;5.67;;;2.00;;
73672;SDS011;61972;19.480;-99.240;2023-11-19T02:47:52;4.03;;;2.17;;
73672;SDS011;61972;19.480;-99.240;2023-11-19T02:50:20;4.80;;;2.10;;
73672;SDS011;61972;19.480;-99.240;2023-11-19T02:52:53;5.70;;;2.40;;
73672;SDS011;61972;19.480;-99.240;2023-11-19T02:55:23;3.13;;;1.75;;
73672;SDS011;61972;19.480;-99.240;2023-11-19T02:57:50;4.23;;;2.03;;
73672;SDS011;61972;19.480;-99.240;2023-11-19T03:00:19;6.50;;;2.03;;
73672;SDS011;61972;19.480;-99.240;2023-11-19T03:03:08;4.70;;;2.08;;
73672;SDS011;61972;19.480;-99.240;2023-11-19T03:05:57;4.07;;;1.85;;
73672;SDS011;61972;19.480;-99.240;2023-11-19T03:08:23;5.55;;;1.98;;
73672;SDS011;61972;19.480;-99.240;2023-11-19T03:10:49;4.33;;;2.00;;
73672;SDS011;61972;19.480;-99.240;2023-11-19T03:13:16;4.45;;;1.92;;
73672;SDS011;61972;19.480;-99.240;2023-11-19T03:15:43;5.00;;;2.00;;
73672;SDS011;61972;19.480;-99.240;2023-11-19T03:18:09;5.93;;;2.03;;
73672;SDS011;61972;19.480;-99.240;2023-11-19T03:20:35;4.10;;;2.20;;
73672;SDS011;61972;19.480;-99.240;2023-11-19T03:23:01;5.20;;;2.03;;
73672;SDS011;61972;19.480;-99.240;2023-11-19T03:25:28;4.40;;;1.80;;
73672;SDS011;61972;19.480;-99.240;2023-11-19T03:28:01;6.65;;;1.80;;
73672;SDS011;61972;19.480;-99.240;2023-11-19T03:30:29;6.45;;;2.17;;
73672;SDS011;61972;19.480;-99.240;2023-11-19T03:32:57;4.93;;;1.80;;
73672;SDS011;61972;19.480;-99.240;2023-11-19T03:35:28;5.10;;;2.00;;
73672;SDS011;61972;19.480;-99.240;2023-11-19T03:37:54;3.72;;;1.98;;
73672;SDS011;61972;19.480;-99.240;2023-11-19T03:40:21;4.07;;;2.10;;
73672;SDS011;61972;19.480;-99.240;2023-11-19T03:42:47;4.85;;;2.00;;
73672;SDS011;61972;19.480;-99.240;2023-11-19T03:45:13;5.07;;;2.00;;
73672;SDS011;61972;19.480;-99.240;2023-11-19T03:47:41;4.37;;;1.87;;
73672;SDS011;61972;19.480;-99.240;2023-11-19T03:50:07;5.13;;;2.22;;
73672;SDS011;61972;19.480;-99.240;2023-11-19T03:52:34;3.45;;;1.90;;
73672;SDS011;61972;19.480;-99.240;2023-11-19T03:55:01;4.60;;;1.80;;
73672;SDS011;61972;19.480;-99.240;2023-11-19T03:57:30;4.75;;;2.10;;
73672;SDS011;61972;19.480;-99.240;2023-11-19T03:59:56;3.10;;;1.83;;
73672;SDS011;61972;19.480;-99.240;2023-11-19T04:02:23;4.47;;;2.00;;
73672;SDS011;61972;19.480;-99.240;2023-11-19T04:04:53;6.25;;;2.20;;
73672;SDS011;61972;19.480;-99.240;2023-11-19T04:07:20;5.00;;;2.08;;
73672;SDS011;61972;19.480;-99.240;2023-11-19T04:09:46;4.38;;;2.17;;
73672;SDS011;61972;19.480;-99.240;2023-11-19T04:12:12;4.93;;;2.10;;
73672;SDS011;61972;19.480;-99.240;2023-11-19T04:14:38;4.65;;;2.13;;
73672;SDS011;61972;19.480;-99.240;2023-11-19T04:17:05;4.35;;;2.20;;
73672;SDS011;61972;19.480;-99.240;2023-11-19T04:19:31;4.32;;;2.35;;
73672;SDS011;61972;19.480;-99.240;2023-11-19T04:21:58;4.55;;;2.28;;
73672;SDS011;61972;19.480;-99.240;2023-11-19T04:24:24;4.93;;;2.53;;
73672;SDS011;61972;19.480;-99.240;2023-11-19T04:26:50;5.65;;;2.25;;
73672;SDS011;61972;19.480;-99.240;2023-11-19T04:29:17;7.18;;;2.40;;
73672;SDS011;61972;19.480;-99.240;2023-11-19T04:31:44;7.05;;;2.35;;
73672;SDS011;61972;19.480;-99.240;2023-11-19T04:34:11;5.53;;;2.40;;
73672;SDS011;61972;19.480;-99.240;2023-11-19T04:36:37;5.33;;;2.60;;
73672;SDS011;61972;19.480;-99.240;2023-11-19T04:39:04;5.05;;;2.70;;
73672;SDS011;61972;19.480;-99.240;2023-11-19T04:41:45;4.18;;;2.50;;
73672;SDS011;61972;19.480;-99.240;2023-11-19T04:44:13;3.83;;;2.40;;
73672;SDS011;61972;19.480;-99.240;2023-11-19T04:46:39;5.63;;;2.60;;
73672;SDS011;61972;19.480;-99.240;2023-11-19T04:49:05;5.67;;;2.30;;
73672;SDS011;61972;19.480;-99.240;2023-11-19T04:51:31;4.22;;;2.38;;
73672;SDS011;61972;19.480;-99.240;2023-11-19T04:54:03;5.43;;;2.72;;
73672;SDS011;61972;19.480;-99.240;2023-11-19T04:56:29;5.88;;;2.70;;
73672;SDS011;61972;19.480;-99.240;2023-11-19T04:58:55;6.30;;;2.50;;
73672;SDS011;61972;19.480;-99.240;2023-11-19T05:01:21;5.20;;;2.60;;
73672;SDS011;61972;19.480;-99.240;2023-11-19T05:03:48;4.80;;;2.45;;
73672;SDS011;61972;19.480;-99.240;2023-11-19T05:06:14;4.53;;;2.60;;
73672;SDS011;61972;19.480;-99.240;2023-11-19T05:08:40;5.82;;;2.55;;
73672;SDS011;61972;19.480;-99.240;2023-11-19T05:11:06;6.05;;;2.35;;
73672;SDS011;61972;19.480;-99.240;2023-11-19T05:13:32;4.17;;;2.57;;
73672;SDS011;61972;19.480;-99.240;2023-11-19T05:15:58;5.18;;;2.55;;
73672;SDS011;61972;19.480;-99.240;2023-11-19T05:18:25;4.70;;;2.08;;
73672;SDS011;61972;19.480;-99.240;2023-11-19T05:20:51;4.32;;;2.40;;
73672;SDS011;61972;19.480;-99.240;2023-11-19T05:23:17;4.35;;;2.40;;
73672;SDS011;61972;19.480;-99.240;2023-11-19T05:25:43;5.57;;;3.10;;
73672;SDS011;61972;19.480;-99.240;2023-11-19T05:28:11;5.95;;;2.88;;
73672;SDS011;61972;19.480;-99.240;2023-11-19T05:30:39;5.10;;;2.80;;
73672;SDS011;61972;19.480;-99.240;2023-11-19T05:33:05;6.00;;;2.70;;
73672;SDS011;61972;19.480;-99.240;2023-11-19T05:35:34;6.93;;;2.70;;
73672;SDS011;61972;19.480;-99.240;2023-11-19T05:38:00;7.20;;;2.97;;
73672;SDS011;61972;19.480;-99.240;2023-11-19T05:40:27;6.97;;;2.80;;
73672;SDS011;61972;19.480;-99.240;2023-11-19T05:42:54;4.90;;;2.72;;
73672;SDS011;61972;19.480;-99.240;2023-11-19T05:45:20;5.88;;;2.55;;
73672;SDS011;61972;19.480;-99.240;2023-11-19T05:47:46;4.93;;;2.70;;
73672;SDS011;61972;19.480;-99.240;2023-11-19T05:50:12;5.13;;;2.50;;
73672;SDS011;61972;19.480;-99.240;2023-11-19T05:52:38;5.90;;;2.95;;
73672;SDS011;61972;19.480;-99.240;2023-11-19T05:55:04;5.65;;;2.55;;
73672;SDS011;61972;19.480;-99.240;2023-11-19T05:57:35;5.15;;;2.58;;
73672;SDS011;61972;19.480;-99.240;2023-11-19T06:00:04;5.22;;;2.85;;
73672;SDS011;61972;19.480;-99.240;2023-11-19T06:02:35;5.40;;;2.50;;
73672;SDS011;61972;19.480;-99.240;2023-11-19T06:05:03;4.95;;;2.80;;
73672;SDS011;61972;19.480;-99.240;2023-11-19T06:07:32;6.28;;;2.58;;
73672;SDS011;61972;19.480;-99.240;2023-11-19T06:09:58;5.10;;;2.65;;
73672;SDS011;61972;19.480;-99.240;2023-11-19T06:12:24;5.85;;;2.75;;
73672;SDS011;61972;19.480;-99.240;2023-11-19T06:14:52;5.00;;;2.53;;
73672;SDS011;61972;19.480;-99.240;2023-11-19T06:17:19;7.97;;;3.33;;
73672;SDS011;61972;19.480;-99.240;2023-11-19T06:19:45;5.97;;;2.92;;
73672;SDS011;61972;19.480;-99.240;2023-11-19T06:22:11;5.60;;;2.65;;
73672;SDS011;61972;19.480;-99.240;2023-11-19T06:24:37;5.47;;;2.90;;
73672;SDS011;61972;19.480;-99.240;2023-11-19T06:27:03;5.00;;;2.73;;
73672;SDS011;61972;19.480;-99.240;2023-11-19T06:29:29;6.32;;;2.47;;
73672;SDS011;61972;19.480;-99.240;2023-11-19T06:31:56;8.10;;;2.50;;
73672;SDS011;61972;19.480;-99.240;2023-11-19T06:34:22;5.97;;;2.50;;
73672;SDS011;61972;19.480;-99.240;2023-11-19T06:36:48;5.63;;;2.47;;
73672;SDS011;61972;19.480;-99.240;2023-11-19T06:39:14;6.53;;;2.90;;
73672;SDS011;61972;19.480;-99.240;2023-11-19T06:41:46;4.90;;;2.88;;
73672;SDS011;61972;19.480;-99.240;2023-11-19T06:44:13;6.40;;;2.75;;
73672;SDS011;61972;19.480;-99.240;2023-11-19T06:46:39;5.72;;;2.58;;
73672;SDS011;61972;19.480;-99.240;2023-11-19T06:49:05;5.75;;;2.60;;
73672;SDS011;61972;19.480;-99.240;2023-11-19T06:51:34;5.90;;;2.60;;
73672;SDS011;61972;19.480;-99.240;2023-11-19T06:54:00;5.93;;;2.80;;
73672;SDS011;61972;19.480;-99.240;2023-11-19T06:56:27;4.85;;;2.50;;
73672;SDS011;61972;19.480;-99.240;2023-11-19T06:58:53;3.90;;;2.50;;
73672;SDS011;61972;19.480;-99.240;2023-11-19T07:01:19;5.07;;;2.83;;
73672;SDS011;61972;19.480;-99.240;2023-11-19T07:03:45;6.60;;;2.60;;
73672;SDS011;61972;19.480;-99.240;2023-11-19T07:06:12;5.20;;;2.67;;
73672;SDS011;61972;19.480;-99.240;2023-11-19T07:08:40;4.80;;;2.47;;
73672;SDS011;61972;19.480;-99.240;2023-11-19T07:11:10;4.50;;;2.55;;
73672;SDS011;61972;19.480;-99.240;2023-11-19T07:13:37;5.40;;;2.38;;
73672;SDS011;61972;19.480;-99.240;2023-11-19T07:16:03;6.63;;;2.40;;
73672;SDS011;61972;19.480;-99.240;2023-11-19T07:18:29;6.18;;;2.30;;
73672;SDS011;61972;19.480;-99.240;2023-11-19T07:20:57;6.88;;;2.20;;
73672;SDS011;61972;19.480;-99.240;2023-11-19T07:23:25;5.82;;;2.33;;
73672;SDS011;61972;19.480;-99.240;2023-11-19T07:25:51;4.57;;;2.33;;
73672;SDS011;61972;19.480;-99.240;2023-11-19T07:28:18;4.87;;;2.50;;
73672;SDS011;61972;19.480;-99.240;2023-11-19T07:30:45;5.70;;;2.33;;
73672;SDS011;61972;19.480;-99.240;2023-11-19T07:33:11;6.60;;;2.65;;
73672;SDS011;61972;19.480;-99.240;2023-11-19T07:35:39;5.85;;;2.42;;
73672;SDS011;61972;19.480;-99.240;2023-11-19T07:38:07;6.18;;;2.80;;
73672;SDS011;61972;19.480;-99.240;2023-11-19T07:40:33;5.33;;;2.33;;
73672;SDS011;61972;19.480;-99.240;2023-11-19T07:42:59;8.43;;;2.50;;
73672;SDS011;61972;19.480;-99.240;2023-11-19T07:45:25;4.68;;;2.70;;
73672;SDS011;61972;19.480;-99.240;2023-11-19T07:47:52;5.75;;;2.67;;
73672;SDS011;61972;19.480;-99.240;2023-11-19T07:50:19;4.57;;;2.20;;
73672;SDS011;61972;19.480;-99.240;2023-11-19T07:52:46;5.80;;;2.30;;
73672;SDS011;61972;19.480;-99.240;2023-11-19T07:55:12;4.18;;;2.13;;
73672;SDS011;61972;19.480;-99.240;2023-11-19T07:57:38;4.93;;;2.50;;
73672;SDS011;61972;19.480;-99.240;2023-11-19T08:00:04;4.97;;;2.50;;
73672;SDS011;61972;19.480;-99.240;2023-11-19T08:02:32;4.72;;;2.25;;
73672;SDS011;61972;19.480;-99.240;2023-11-19T08:04:58;5.80;;;2.20;;
73672;SDS011;61972;19.480;-99.240;2023-11-19T08:07:24;6.15;;;2.20;;
73672;SDS011;61972;19.480;-99.240;2023-11-19T08:09:50;5.63;;;2.40;;
73672;SDS011;61972;19.480;-99.240;2023-11-19T08:12:16;5.82;;;2.38;;
73672;SDS011;61972;19.480;-99.240;2023-11-19T08:14:43;7.63;;;2.28;;
73672;SDS011;61972;19.480;-99.240;2023-11-19T08:20:00;4.10;;;2.22;;
73672;SDS011;61972;19.480;-99.240;2023-11-19T08:22:26;6.97;;;2.40;;
73672;SDS011;61972;19.480;-99.240;2023-11-19T08:24:52;5.22;;;2.30;;
73672;SDS011;61972;19.480;-99.240;2023-11-19T08:27:18;4.22;;;2.28;;
73672;SDS011;61972;19.480;-99.240;2023-11-19T08:29:53;4.37;;;2.40;;
73672;SDS011;61972;19.480;-99.240;2023-11-19T08:32:25;4.13;;;2.10;;
73672;SDS011;61972;19.480;-99.240;2023-11-19T08:34:51;6.43;;;2.35;;
73672;SDS011;61972;19.480;-99.240;2023-11-19T08:37:18;5.68;;;2.17;;
73672;SDS011;61972;19.480;-99.240;2023-11-19T08:39:50;6.28;;;2.33;;
73672;SDS011;61972;19.480;-99.240;2023-11-19T08:42:16;4.37;;;2.40;;
73672;SDS011;61972;19.480;-99.240;2023-11-19T08:44:43;4.28;;;2.40;;
73672;SDS011;61972;19.480;-99.240;2023-11-19T08:47:09;5.90;;;2.20;;
73672;SDS011;61972;19.480;-99.240;2023-11-19T08:49:37;3.85;;;2.25;;
73672;SDS011;61972;19.480;-99.240;2023-11-19T08:52:04;3.45;;;2.10;;
73672;SDS011;61972;19.480;-99.240;2023-11-19T08:54:32;8.27;;;1.77;;
73672;SDS011;61972;19.480;-99.240;2023-11-19T08:56:59;7.13;;;2.13;;
73672;SDS011;61972;19.480;-99.240;2023-11-19T08:59:25;3.80;;;1.95;;
73672;SDS011;61972;19.480;-99.240;2023-11-19T09:01:51;3.85;;;2.10;;
73672;SDS011;61972;19.480;-99.240;2023-11-19T09:04:18;5.32;;;2.03;;
73672;SDS011;61972;19.480;-99.240;2023-11-19T09:06:47;3.93;;;1.90;;
73672;SDS011;61972;19.480;-99.240;2023-11-19T09:09:14;4.05;;;2.08;;
73672;SDS011;61972;19.480;-99.240;2023-11-19T09:11:40;4.13;;;1.80;;
73672;SDS011;61972;19.480;-99.240;2023-11-19T09:14:06;5.88;;;1.80;;
73672;SDS011;61972;19.480;-99.240;2023-11-19T09:16:33;4.13;;;2.00;;
73672;SDS011;61972;19.480;-99.240;2023-11-19T09:18:59;3.37;;;1.90;;
73672;SDS011;61972;19.480;-99.240;2023-11-19T09:21:27;5.10;;;2.10;;
73672;SDS011;61972;19.480;-99.240;2023-11-19T09:23:56;4.22;;;1.92;;
73672;SDS011;61972;19.480;-99.240;2023-11-19T09:26:22;4.65;;;1.85;;
73672;SDS011;61972;19.480;-99.240;2023-11-19T09:28:49;4.90;;;2.13;;
73672;SDS011;61972;19.480;-99.240;2023-11-19T09:31:16;5.57;;;2.07;;
73672;SDS011;61972;19.480;-99.240;2023-11-19T09:33:43;4.25;;;1.92;;
73672;SDS011;61972;19.480;-99.240;2023-11-19T09:36:11;4.82;;;2.00;;
73672;SDS011;61972;19.480;-99.240;2023-11-19T09:38:42;5.95;;;1.90;;
73672;SDS011;61972;19.480;-99.240;2023-11-19T09:41:11;4.40;;;1.83;;
73672;SDS011;61972;19.480;-99.240;2023-11-19T09:43:39;4.83;;;2.07;;
73672;SDS011;61972;19.480;-99.240;2023-11-19T09:46:06;4.82;;;1.90;;
73672;SDS011;61972;19.480;-99.240;2023-11-19T09:48:37;5.90;;;2.05;;
73672;SDS011;61972;19.480;-99.240;2023-11-19T09:51:05;5.07;;;2.00;;
73672;SDS011;61972;19.480;-99.240;2023-11-19T09:53:33;4.53;;;1.83;;
73672;SDS011;61972;19.480;-99.240;2023-11-19T09:56:02;3.07;;;1.80;;
73672;SDS011;61972;19.480;-99.240;2023-11-19T09:58:29;5.93;;;1.83;;
73672;SDS011;61972;19.480;-99.240;2023-11-19T10:00:59;3.75;;;1.92;;
73672;SDS011;61972;19.480;-99.240;2023-11-19T10:03:31;3.65;;;1.58;;
73672;SDS011;61972;19.480;-99.240;2023-11-19T10:05:59;5.72;;;2.20;;
73672;SDS011;61972;19.480;-99.240;2023-11-19T10:08:27;4.73;;;1.90;;
73672;SDS011;61972;19.480;-99.240;2023-11-19T10:10:53;4.53;;;2.25;;
73672;SDS011;61972;19.480;-99.240;2023-11-19T10:13:20;3.20;;;1.60;;
73672;SDS011;61972;19.480;-99.240;2023-11-19T10:15:52;6.00;;;1.80;;
73672;SDS011;61972;19.480;-99.240;2023-11-19T10:18:23;4.05;;;2.00;;
73672;SDS011;61972;19.480;-99.240;2023-11-19T10:20:50;3.33;;;1.80;;
73672;SDS011;61972;19.480;-99.240;2023-11-19T10:23:17;3.75;;;1.88;;
73672;SDS011;61972;19.480;-99.240;2023-11-19T10:25:46;5.50;;;1.98;;
73672;SDS011;61972;19.480;-99.240;2023-11-19T10:28:14;3.72;;;1.63;;
73672;SDS011;61972;19.480;-99.240;2023-11-19T10:30:44;4.10;;;1.90;;
73672;SDS011;61972;19.480;-99.240;2023-11-19T10:33:11;4.63;;;1.60;;
73672;SDS011;61972;19.480;-99.240;2023-11-19T10:38:24;3.80;;;1.58;;
73672;SDS011;61972;19.480;-99.240;2023-11-19T10:40:51;6.13;;;1.90;;
73672;SDS011;61972;19.480;-99.240;2023-11-19T10:43:18;3.92;;;1.50;;
73672;SDS011;61972;19.480;-99.240;2023-11-19T10:45:45;5.93;;;1.90;;
73672;SDS011;61972;19.480;-99.240;2023-11-19T10:48:11;4.10;;;1.60;;
73672;SDS011;61972;19.480;-99.240;2023-11-19T10:50:38;4.00;;;1.60;;
73672;SDS011;61972;19.480;-99.240;2023-11-19T10:53:06;4.63;;;1.65;;
73672;SDS011;61972;19.480;-99.240;2023-11-19T10:55:34;3.90;;;1.90;;
73672;SDS011;61972;19.480;-99.240;2023-11-19T10:58:07;3.93;;;1.70;;
73672;SDS011;61972;19.480;-99.240;2023-11-19T11:00:46;4.22;;;1.67;;
73672;SDS011;61972;19.480;-99.240;2023-11-19T11:03:17;3.80;;;1.65;;
73672;SDS011;61972;19.480;-99.240;2023-11-19T11:05:48;3.88;;;1.90;;
73672;SDS011;61972;19.480;-99.240;2023-11-19T11:08:16;5.90;;;1.88;;
73672;SDS011;61972;19.480;-99.240;2023-11-19T11:10:43;5.17;;;1.90;;
73672;SDS011;61972;19.480;-99.240;2023-11-19T11:13:21;4.28;;;1.70;;
73672;SDS011;61972;19.480;-99.240;2023-11-19T11:15:53;4.63;;;1.63;;
73672;SDS011;61972;19.480;-99.240;2023-11-19T11:18:23;5.13;;;2.15;;
73672;SDS011;61972;19.480;-99.240;2023-11-19T11:21:00;4.22;;;1.77;;
73672;SDS011;61972;19.480;-99.240;2023-11-19T11:29:14;3.35;;;1.65;;
73672;SDS011;61972;19.480;-99.240;2023-11-19T11:35:00;3.97;;;1.70;;
73672;SDS011;61972;19.480;-99.240;2023-11-19T11:37:44;3.50;;;1.57;;
73672;SDS011;61972;19.480;-99.240;2023-11-19T11:40:16;5.20;;;1.80;;
73672;SDS011;61972;19.480;-99.240;2023-11-19T11:42:48;4.47;;;1.65;;
73672;SDS011;61972;19.480;-99.240;2023-11-19T11:45:17;4.40;;;1.50;;
73672;SDS011;61972;19.480;-99.240;2023-11-19T11:50:20;3.83;;;1.60;;
73672;SDS011;61972;19.480;-99.240;2023-11-19T11:55:28;3.63;;;1.70;;
73672;SDS011;61972;19.480;-99.240;2023-11-19T11:57:57;3.17;;;1.58;;
73672;SDS011;61972;19.480;-99.240;2023-11-19T12:00:27;3.58;;;1.88;;
73672;SDS011;61972;19.480;-99.240;2023-11-19T12:02:56;3.70;;;1.70;;
73672;SDS011;61972;19.480;-99.240;2023-11-19T12:05:25;5.20;;;1.83;;
73672;SDS011;61972;19.480;-99.240;2023-11-19T12:08:02;4.05;;;1.77;;
73672;SDS011;61972;19.480;-99.240;2023-11-19T12:10:48;7.07;;;1.88;;
73672;SDS011;61972;19.480;-99.240;2023-11-19T12:13:16;4.35;;;1.50;;
73672;SDS011;61972;19.480;-99.240;2023-11-19T12:18:31;3.80;;;1.70;;
73672;SDS011;61972;19.480;-99.240;2023-11-19T12:20:58;4.43;;;1.75;;
73672;SDS011;61972;19.480;-99.240;2023-11-19T12:23:28;4.65;;;1.80;;
73672;SDS011;61972;19.480;-99.240;2023-11-19T12:26:01;3.35;;;1.50;;
73672;SDS011;61972;19.480;-99.240;2023-11-19T12:28:30;3.57;;;1.60;;
73672;SDS011;61972;19.480;-99.240;2023-11-19T12:31:07;4.63;;;1.70;;
73672;SDS011;61972;19.480;-99.240;2023-11-19T12:33:37;4.53;;;1.60;;
73672;SDS011;61972;19.480;-99.240;2023-11-19T12:36:03;3.53;;;1.70;;
73672;SDS011;61972;19.480;-99.240;2023-11-19T12:38:31;3.92;;;1.70;;
73672;SDS011;61972;19.480;-99.240;2023-11-19T12:43:36;3.40;;;1.80;;
73672;SDS011;61972;19.480;-99.240;2023-11-19T12:46:22;4.53;;;2.10;;
73672;SDS011;61972;19.480;-99.240;2023-11-19T12:48:49;3.50;;;1.63;;
73672;SDS011;61972;19.480;-99.240;2023-11-19T12:51:17;5.63;;;1.90;;
73672;SDS011;61972;19.480;-99.240;2023-11-19T12:53:51;4.10;;;1.80;;
73672;SDS011;61972;19.480;-99.240;2023-11-19T12:56:23;3.83;;;1.70;;
73672;SDS011;61972;19.480;-99.240;2023-11-19T12:58:50;4.13;;;1.67;;
73672;SDS011;61972;19.480;-99.240;2023-11-19T13:01:20;4.45;;;1.80;;
73672;SDS011;61972;19.480;-99.240;2023-11-19T13:03:47;3.50;;;1.75;;
73672;SDS011;61972;19.480;-99.240;2023-11-19T13:06:16;3.83;;;1.90;;
73672;SDS011;61972;19.480;-99.240;2023-11-19T13:08:55;5.13;;;1.80;;
73672;SDS011;61972;19.480;-99.240;2023-11-19T13:11:30;3.38;;;1.40;;
73672;SDS011;61972;19.480;-99.240;2023-11-19T13:13:59;3.10;;;1.52;;
73672;SDS011;61972;19.480;-99.240;2023-11-19T13:16:36;3.92;;;1.55;;
73672;SDS011;61972;19.480;-99.240;2023-11-19T13:19:03;4.53;;;1.93;;
73672;SDS011;61972;19.480;-99.240;2023-11-19T13:21:30;3.35;;;1.70;;
73672;SDS011;61972;19.480;-99.240;2023-11-19T13:23:57;5.15;;;1.75;;
73672;SDS011;61972;19.480;-99.240;2023-11-19T13:26:23;4.78;;;1.58;;
73672;SDS011;61972;19.480;-99.240;2023-11-19T13:28:50;5.32;;;2.20;;
73672;SDS011;61972;19.480;-99.240;2023-11-19T13:31:17;4.73;;;2.00;;
73672;SDS011;61972;19.480;-99.240;2023-11-19T13:33:43;4.15;;;1.75;;
73672;SDS011;61972;19.480;-99.240;2023-11-19T13:36:09;4.90;;;2.00;;
73672;SDS011;61972;19.480;-99.240;2023-11-19T13:41:37;3.30;;;1.60;;
73672;SDS011;61972;19.480;-99.240;2023-11-19T13:44:03;3.10;;;1.80;;
73672;SDS011;61972;19.480;-99.240;2023-11-19T13:49:46;3.88;;;1.67;;
73672;SDS011;61972;19.480;-99.240;2023-11-19T13:52:13;3.97;;;1.80;;
73672;SDS011;61972;19.480;-99.240;2023-11-19T13:54:39;3.47;;;1.67;;
73672;SDS011;61972;19.480;-99.240;2023-11-19T13:57:05;5.80;;;1.70;;
73672;SDS011;61972;19.480;-99.240;2023-11-19T13:59:31;3.78;;;1.73;;
73672;SDS011;61972;19.480;-99.240;2023-11-19T14:02:00;3.90;;;1.70;;
73672;SDS011;61972;19.480;-99.240;2023-11-19T14:04:27;4.70;;;1.80;;
73672;SDS011;61972;19.480;-99.240;2023-11-19T14:06:53;4.72;;;1.73;;
73672;SDS011;61972;19.480;-99.240;2023-11-19T14:09:21;4.20;;;1.70;;
73672;SDS011;61972;19.480;-99.240;2023-11-19T14:12:15;6.90;;;1.70;;
73672;SDS011;61972;19.480;-99.240;2023-11-19T14:14:46;12.43;;;1.85;;
73672;SDS011;61972;19.480;-99.240;2023-11-19T14:17:22;4.38;;;1.48;;
73672;SDS011;61972;19.480;-99.240;2023-11-19T14:20:16;4.15;;;1.65;;
73672;SDS011;61972;19.480;-99.240;2023-11-19T14:22:51;7.07;;;1.50;;
73672;SDS011;61972;19.480;-99.240;2023-11-19T14:25:18;3.42;;;1.50;;
73672;SDS011;61972;19.480;-99.240;2023-11-19T14:27:50;5.35;;;2.15;;
73672;SDS011;61972;19.480;-99.240;2023-11-19T14:31:01;3.78;;;1.30;;
73672;SDS011;61972;19.480;-99.240;2023-11-19T14:33:33;5.22;;;1.50;;
73672;SDS011;61972;19.480;-99.240;2023-11-19T15:06:30;3.57;;;1.50;;
73672;SDS011;61972;19.480;-99.240;2023-11-19T15:08:58;3.03;;;1.30;;
73672;SDS011;61972;19.480;-99.240;2023-11-19T15:11:32;3.22;;;1.50;;
73672;SDS011;61972;19.480;-99.240;2023-11-19T15:14:12;3.22;;;1.60;;
73672;SDS011;61972;19.480;-99.240;2023-11-19T15:16:52;3.83;;;1.10;;
73672;SDS011;61972;19.480;-99.240;2023-11-19T15:30:40;2.88;;;1.27;;
73672;SDS011;61972;19.480;-99.240;2023-11-19T15:33:18;2.20;;;1.20;;
73672;SDS011;61972;19.480;-99.240;2023-11-19T15:36:14;3.53;;;1.40;;
73672;SDS011;61972;19.480;-99.240;2023-11-19T15:42:17;2.88;;;1.15;;
73672;SDS011;61972;19.480;-99.240;2023-11-19T15:48:43;2.38;;;1.20;;